Map

Track Data

SID SEASON NUMBER BASIN SUBBASIN NAME ISO_TIME NATURE LAT LON WMO_WIND WMO_PRES WMO_AGENCY TRACK_TYPE DIST2LAND LANDFALL IFLAG USA_AGENCY USA_ATCF_ID USA_LAT USA_LON USA_RECORD USA_STATUS USA_WIND USA_PRES USA_SSHS USA_R34_NE USA_R34_SE USA_R34_SW USA_R34_NW USA_R50_NE USA_R50_SE USA_R50_SW USA_R50_NW USA_R64_NE USA_R64_SE USA_R64_SW USA_R64_NW USA_POCI USA_ROCI USA_RMW USA_EYE TOKYO_LAT TOKYO_LON TOKYO_GRADE TOKYO_WIND TOKYO_PRES TOKYO_R50_DIR TOKYO_R50_LONG TOKYO_R50_SHORT TOKYO_R30_DIR TOKYO_R30_LONG TOKYO_R30_SHORT TOKYO_LAND CMA_LAT CMA_LON CMA_CAT CMA_WIND CMA_PRES HKO_LAT HKO_LON HKO_CAT HKO_WIND HKO_PRES NEWDELHI_LAT NEWDELHI_LON NEWDELHI_GRADE NEWDELHI_WIND NEWDELHI_PRES NEWDELHI_CI NEWDELHI_DP NEWDELHI_POCI REUNION_LAT REUNION_LON REUNION_TYPE REUNION_WIND REUNION_PRES REUNION_TNUM REUNION_CI REUNION_RMW REUNION_R34_NE REUNION_R34_SE REUNION_R34_SW REUNION_R34_NW REUNION_R50_NE REUNION_R50_SE REUNION_R50_SW REUNION_R50_NW REUNION_R64_NE REUNION_R64_SE REUNION_R64_SW REUNION_R64_NW BOM_LAT BOM_LON BOM_TYPE BOM_WIND BOM_PRES BOM_TNUM BOM_CI BOM_RMW BOM_R34_NE BOM_R34_SE BOM_R34_SW BOM_R34_NW BOM_R50_NE BOM_R50_SE BOM_R50_SW BOM_R50_NW BOM_R64_NE BOM_R64_SE BOM_R64_SW BOM_R64_NW BOM_ROCI BOM_POCI BOM_EYE BOM_POS_METHOD BOM_PRES_METHOD NADI_LAT NADI_LON NADI_CAT NADI_WIND NADI_PRES WELLINGTON_LAT WELLINGTON_LON WELLINGTON_WIND WELLINGTON_PRES DS824_LAT DS824_LON DS824_STAGE DS824_WIND DS824_PRES TD9636_LAT TD9636_LON TD9636_STAGE TD9636_WIND TD9636_PRES TD9635_LAT TD9635_LON TD9635_WIND TD9635_PRES TD9635_ROCI NEUMANN_LAT NEUMANN_LON NEUMANN_CLASS NEUMANN_WIND NEUMANN_PRES MLC_LAT MLC_LON MLC_CLASS MLC_WIND MLC_PRES USA_GUST BOM_GUST BOM_GUST_PER REUNION_GUST REUNION_GUST_PER USA_SEAHGT USA_SEARAD_NE USA_SEARAD_SE USA_SEARAD_SW USA_SEARAD_NW STORM_SPEED STORM_DIR
1966317S08161 1967 108 SP MM ANGELA 1966-11-13 11:00:00 NR -8.20000 161.400 main 62 62 __________O___ -1 -8.20000 161.400 1 15 1 0
1966317S08161 1967 108 SP MM ANGELA 1966-11-13 12:00:00 TS -8.19930 161.386 main 62 55 O________OP___ jtwc_sh SH021967 -8.20000 161.400 15 -1 -8.20000 161.400 TC 15 -8.19860 161.372 1 16 2 258
1966317S08161 1967 108 SP MM ANGELA 1966-11-13 15:00:00 TS -8.22241 161.291 main 55 39 P________PP___ SH021967 -8.23251 161.295 22 -1 -8.23251 161.295 TC 22 -8.20896 161.286 1 19 2 244
1966317S08161 1967 108 SP MM ANGELA 1966-11-13 18:00:00 TS -8.28871 161.197 main 39 24 O________OP___ jtwc_sh SH021967 -8.30000 161.200 30 -1 -8.30000 161.200 TC 30 -8.27178 161.192 1 23 3 221
1966317S08161 1967 108 SP MM ANGELA 1966-11-13 21:00:00 TS -8.43547 161.104 main 24 0 P________PP___ SH021967 -8.43999 161.115 30 -1 -8.43999 161.115 TC 30 -8.42644 161.084 1 27 4 207
1966317S08161 1967 108 SP MM ANGELA 1966-11-13 23:00:00 TS -8.59809 161.035 998 bom main 0 0 P_____O__PO___ SH021967 -8.59690 161.045 30 -1 -8.60000 161.100 998 -8.59690 161.045 TC 30 -8.60000 161.000 1 30 6 200
1966317S08161 1967 108 SP MM ANGELA 1966-11-14 00:00:00 TS -8.70039 161.007 main 11 0 O_____P__OP_O_ jtwc_sh SH021967 -8.70000 161.000 30 -1 -8.72995 160.995 998 -8.70000 161.000 TC 30 -8.71159 160.954 1 29 -8.60000 161.300 TC 35 998 8 201
1966317S08161 1967 108 SP MM ANGELA 1966-11-14 02:00:00 TS -8.96767 160.892 998 bom main 0 0 P_____O__PP_P_ SH021967 -8.96593 160.888 28 -1 -9.00000 160.800 998 4 -8.96593 160.888 TC 28 -8.97616 160.853 1 28 -8.85093 161.122 TC 35 998 9 203
1966317S08161 1967 108 SP MM ANGELA 1966-11-14 03:00:00 TS -9.11509 160.829 main 10 10 P_____P__PP_P_ SH021967 -9.12000 160.823 27 -1 -9.14441 160.717 998 -9.12000 160.823 TC 27 -9.12359 160.798 1 28 -8.98007 161.035 TC 35 998 10 203
1966317S08161 1967 108 SP MM ANGELA 1966-11-14 06:00:00 TS -9.57373 160.627 main 0 0 O_____P__OP_O_ jtwc_sh SH021967 -9.60000 160.600 25 -1 -9.60063 160.514 998 -9.60000 160.600 TC 25 -9.59314 160.608 1 26 -9.40000 160.800 TC 35 998 10 205
1966317S08161 1967 108 SP MM ANGELA 1966-11-14 09:00:00 TS -10.0162 160.412 main 22 22 P_____P__PP_P_ SH021967 -10.0375 160.372 25 -1 -10.0432 160.335 998 -10.0375 160.372 TC 25 -10.0453 160.378 1 25 -9.87244 160.607 TC 35 998 10 208
1966317S08161 1967 108 SP MM ANGELA 1966-11-14 11:00:00 TS -10.2752 160.247 998 bom main 56 56 P_____O__PO_P_ SH021967 -10.2921 160.197 25 -1 -10.3000 160.200 998 -10.2921 160.197 TC 25 -10.3000 160.200 1 24 -10.1702 160.475 TC 35 998 9 215
1966317S08161 1967 108 SP MM ANGELA 1966-11-14 12:00:00 TS -10.3890 160.149 main 67 67 O_____P__OP_O_ jtwc_sh SH021967 -10.4000 160.100 25 -1 -10.4358 160.120 998 -10.4000 160.100 TC 25 -10.3981 160.075 1 23 -10.3000 160.400 TC 35 998 9 228
1966317S08161 1967 108 SP EA ANGELA 1966-11-14 15:00:00 TS -10.6657 159.811 main 100 100 P_____P__PP_P_ SH021967 -10.6525 159.757 22 -1 -10.7927 159.853 998 -10.6525 159.757 TC 22 -10.6363 159.656 1 22 -10.6175 160.123 TC 35 998 8 237
1966317S08161 1967 108 SP EA ANGELA 1966-11-14 18:00:00 TS -10.8285 159.453 main 116 116 O_____P__OP_O_ jtwc_sh SH021967 -10.8000 159.400 20 -1 -10.9972 159.540 998 -10.8000 159.400 TC 20 -10.7950 159.240 1 21 -10.8000 159.800 TC 35 998 8 250
1966317S08161 1967 108 SP EA ANGELA 1966-11-14 20:00:00 TS -10.8817 159.200 998 bom main 139 139 P_____O__PP_P_ SH021967 -10.8788 159.127 20 -1 -11.0000 159.300 998 -10.8788 159.127 TC 20 -10.8597 159.009 1 21 -10.8668 159.520 TC 35 998 7 261
1966317S08161 1967 108 SP EA ANGELA 1966-11-14 21:00:00 TS -10.8857 159.082 main 145 145 P_____P__PP_P_ SH021967 -10.9025 159.002 20 -1 -10.9535 159.151 998 -10.9025 159.002 TC 20 -10.8804 158.918 1 20 -10.8751 159.382 TC 35 998 6 276
1966317S08161 1967 108 SP EA ANGELA 1966-11-14 23:00:00 TS -10.8529 158.907 998 bom main 157 149 P_____O__PO_P_ SH021967 -10.9140 158.829 20 -1 -10.8000 158.900 998 -10.9140 158.829 TC 20 -10.9000 158.800 1 20 -10.8417 159.162 TC 35 998 4 289
1966317S08161 1967 108 SP EA ANGELA 1966-11-15 00:00:00 TS -10.8153 158.876 main 149 125 O_____P__OP_O_ jtwc_sh SH021967 -10.9000 158.800 20 -1 -10.7036 158.834 998 -10.9000 158.800 TC 20 -10.8879 158.820 1 19 -10.8000 159.100 TC 35 998 4 26
1966317S08161 1967 108 SP EA ANGELA 1966-11-15 03:00:00 TS -10.6069 159.025 main 125 86 P_____P__PP_P_ SH021967 -10.7501 159.040 20 -1 -10.3812 158.875 998 -10.7501 159.040 TC 20 -10.7952 159.016 1 18 -10.5199 159.160 TC 35 998 6 48
1966317S08161 1967 108 SP EA ANGELA 1966-11-15 06:00:00 TS -10.4289 159.319 998 bom main 86 70 O_____O__OP_O_ jtwc_sh SH021967 -10.6000 159.400 20 -1 -10.2000 159.200 998 -10.6000 159.400 TC 20 -10.6733 159.316 1 17 -10.3000 159.400 TC 35 998 6 73
1966317S08161 1967 108 SP EA ANGELA 1966-11-15 09:00:00 TS -10.4494 159.565 998 bom main 70 70 P_____O__PP_P_ SH021967 -10.5899 159.575 17 -1 -10.3000 159.700 998 -10.5899 159.575 TC 17 -10.5938 159.592 1 15 -10.4101 159.695 TC 35 998 4 114
1966317S08161 1967 108 SP EA ANGELA 1966-11-15 11:00:00 TS -10.5699 159.640 main 92 92 P_____P__PO_P_ SH021967 -10.6500 159.611 15 -1 -10.6044 159.812 998 -10.6500 159.611 TC 15 -10.6000 159.700 1 15 -10.5926 159.857 TC 35 998 4 162
1966317S08161 1967 108 SP EA ANGELA 1966-11-15 12:00:00 TS -10.6594 159.638 main 103 103 O_____P__OP_O_ jtwc_sh SH021967 -10.7000 159.600 15 -1 -10.8049 159.803 998 -10.7000 159.600 TC 15 -10.6496 159.690 1 -10.7000 159.900 TC 35 998 6 194
1966317S08161 1967 108 SP EA ANGELA 1966-11-15 14:00:00 TS -10.8623 159.572 998 bom main 125 125 P_____O__PP_P_ SH021967 -10.8296 159.520 15 -1 -11.2000 159.700 998 -10.8296 159.520 TC 15 -10.7905 159.621 1 -10.9259 159.885 TC 35 998 7 202
1966317S08161 1967 108 SP EA ANGELA 1966-11-15 15:00:00 TS -10.9651 159.517 main 138 138 P_____P__PP_P_ SH021967 -10.9125 159.453 15 -1 -11.3267 159.644 998 -10.9125 159.453 TC 15 -10.8777 159.564 1 -11.0499 159.840 TC 35 998 8 215
1966317S08161 1967 108 SP EA ANGELA 1966-11-15 18:00:00 TS -11.2756 159.282 main 176 176 O_____P__OP_O_ jtwc_sh SH021967 -11.2000 159.200 15 -1 -11.5873 159.357 998 -11.2000 159.200 TC 15 -11.1809 159.326 1 -11.4000 159.600 TC 35 998 8 220
1966317S08161 1967 108 SP EA ANGELA 1966-11-15 21:00:00 TS -11.5613 159.005 main 219 219 P_____P__PP_P_ SH021967 -11.5150 158.973 15 -1 -11.7304 158.967 999 -11.5150 158.973 TC 15 -11.5028 159.020 1 -11.6376 159.273 TC 32 999 8 226
1966317S08161 1967 108 SP EA ANGELA 1966-11-15 23:00:00 TS -11.7299 158.799 1000 bom main 239 239 P_____O__PO_P_ SH021967 -11.7145 158.797 15 -1 -11.8000 158.700 1000 -11.7145 158.797 TC 15 -11.7000 158.800 7 -11.7527 159.021 TC 30 999 8 231
1966317S08161 1967 108 SP EA ANGELA 1966-11-16 00:00:00 TS -11.8030 158.696 main 254 254 O_____P__OP_O_ jtwc_sh SH021967 -11.8000 158.700 15 -1 -11.8489 158.584 1000 -11.8000 158.700 TC 15 -11.7694 158.692 7 -11.8000 158.900 TC 30 1000 7 242
1966317S08161 1967 108 SP EA ANGELA 1966-11-16 03:00:00 TS -11.9556 158.368 main 290 290 P_____P__PP_P_ SH021967 -11.9650 158.357 15 -1 -11.9736 158.236 1000 -11.9650 158.357 TC 15 -11.9544 158.339 7 -11.9074 158.592 TC 30 1000 7 246
1966317S08161 1967 108 SP EA ANGELA 1966-11-16 06:00:00 TS -12.0859 158.036 main 324 324 O_____P__OP_O_ jtwc_sh SH021967 -12.1000 158.000 15 -1 -12.0839 157.913 1000 -12.1000 158.000 TC 15 -12.1193 157.981 7 -12.0000 158.300 TC 30 1000 7 246
1966317S08161 1967 108 SP EA ANGELA 1966-11-16 09:00:00 TS -12.2403 157.720 main 353 353 P_____P__PP_P_ SH021967 -12.2850 157.663 15 -1 -12.2034 157.640 1000 -12.2850 157.663 TC 15 -12.2826 157.664 7 -12.1351 157.963 TC 30 1000 7 240
1966317S08161 1967 108 SP EA ANGELA 1966-11-16 11:00:00 TS -12.3566 157.548 1000 bom main 384 384 P_____O__PO_P_ SH021967 -12.4250 157.475 15 -1 -12.3000 157.500 1000 -12.4250 157.475 TC 15 -12.4000 157.500 7 -12.2417 157.771 TC 30 1000 6 232
1966317S08161 1967 108 SP EA ANGELA 1966-11-16 12:00:00 TS -12.4233 157.480 main 384 384 O_____P__OP_O_ jtwc_sh SH021967 -12.5000 157.400 15 -1 -12.3664 157.442 1000 -12.5000 157.400 TC 15 -12.4731 157.439 7 -12.3000 157.700 TC 30 1000 5 214
1966317S08161 1967 108 SP EA ANGELA 1966-11-16 15:00:00 TS -12.6463 157.350 main 415 415 P_____P__PP_P_ SH021967 -12.7499 157.247 15 -1 -12.5899 157.322 1000 -12.7499 157.247 TC 15 -12.7056 157.314 7 -12.4849 157.612 TC 30 1000 5 201
1966317S08161 1967 108 SP EA ANGELA 1966-11-16 18:00:00 TS -12.8801 157.302 main 441 441 O_____P__OP_O_ jtwc_sh SH021967 -13.0000 157.200 15 -1 -12.8302 157.269 1000 -13.0000 157.200 TC 15 -12.9434 157.263 7 -12.7000 157.600 TC 30 1000 5 187
1966317S08161 1967 108 SP EA ANGELA 1966-11-16 21:00:00 TS -13.1088 157.296 main 459 459 P_____P__PP_P_ SH021967 -13.2225 157.220 15 -1 -13.0622 157.273 1000 -13.2225 157.220 TC 15 -13.1675 157.270 7 -12.9650 157.528 TC 30 1000 4 177
1966317S08161 1967 108 SP EA ANGELA 1966-11-16 23:00:00 TS -13.2445 157.320 1000 bom main 468 468 P_____O__PO_P_ SH021967 -13.3474 157.270 15 -1 -13.2000 157.300 1000 -13.3474 157.270 TC 15 -13.3000 157.300 7 -13.1312 157.500 TC 30 1000 4 167
1966317S08161 1967 108 SP EA ANGELA 1966-11-17 00:00:00 TS -13.3019 157.337 main 477 471 O_____P__OP_O_ jtwc_sh SH021967 -13.4000 157.300 15 -1 -13.2551 157.311 1000 -13.4000 157.300 TC 15 -13.3563 157.312 7 -13.2000 157.500 TC 30 1000 3 154
1966317S08161 1967 108 SP EA ANGELA 1966-11-17 03:00:00 TS -13.4323 157.415 main 480 480 P_____P__PP_P_ SH021967 -13.5150 157.393 15 -1 -13.3983 157.375 1000 -13.5150 157.393 TC 15 -13.5037 157.380 7 -13.3150 157.577 TC 30 1000 3 142
1966317S08161 1967 108 SP EA ANGELA 1966-11-17 06:00:00 TS -13.5361 157.526 main 484 484 O_____P__OP_O_ jtwc_sh SH021967 -13.6000 157.500 15 -1 -13.5181 157.478 1000 -13.6000 157.500 TC 15 -13.6261 157.486 7 -13.4000 157.700 TC 30 1000 3 135
1966317S08161 1967 108 SP EA ANGELA 1966-11-17 09:00:00 TS -13.6495 157.639 main 488 488 P_____P__PP_P_ SH021967 -13.7000 157.593 15 -1 -13.6271 157.606 1000 -13.7000 157.593 TC 15 -13.7329 157.612 7 -13.5500 157.793 TC 30 1000 3 135
1966317S08161 1967 108 SP EA ANGELA 1966-11-17 11:00:00 TS -13.7247 157.722 1000 bom main 493 493 P_____O__PO_P_ SH021967 -13.7667 157.661 15 -1 -13.7000 157.700 1000 -13.7667 157.661 TC 15 -13.8000 157.700 7 -13.6531 157.861 TC 30 1000 3 134
1966317S08161 1967 108 SP EA ANGELA 1966-11-17 12:00:00 TS -13.7631 157.762 main 498 493 O_____P__OP_O_ jtwc_sh SH021967 -13.8000 157.700 15 -1 -13.7429 157.741 1000 -13.8000 157.700 TC 15 -13.8354 157.732 7 -13.7000 157.900 TC 30 1000 3 131
1966317S08161 1967 108 SP EA ANGELA 1966-11-17 15:00:00 TS -13.8728 157.895 main 503 499 P_____P__PP_P_ SH021967 -13.9000 157.842 15 -1 -13.8721 157.873 1000 -13.9000 157.842 TC 15 -13.9357 157.832 7 -13.8000 158.043 TC 27 1000 3 129
1966317S08161 1967 108 SP EA ANGELA 1966-11-17 18:00:00 TS -13.9815 158.041 main 509 505 O_____P__OP_O_ jtwc_sh SH021967 -14.0000 158.000 15 -1 -13.9996 158.021 1001 -14.0000 158.000 TC 15 -14.0318 157.945 7 -13.9000 158.200 TC 25 1001 4 128
1966317S08161 1967 108 SP EA ANGELA 1966-11-17 21:00:00 TS -14.0949 158.188 main 512 508 P_____P__PP_P_ SH021967 -14.0925 158.143 15 -1 -14.1223 158.183 1001 -14.0925 158.143 TC 15 -14.1301 158.086 7 -14.0500 158.343 TC 25 1001 4 128
1966317S08161 1967 108 SP EA ANGELA 1966-11-17 23:00:00 TS -14.1728 158.296 1002 bom main 519 519 P_____O__PO_P_ SH021967 -14.1609 158.244 15 -1 -14.2000 158.300 1002 -14.1609 158.244 TC 15 -14.2000 158.200 7 -14.1531 158.444 TC 25 1001 4 127
1966317S08161 1967 108 SP EA ANGELA 1966-11-18 00:00:00 TS -14.2131 158.352 main 515 515 O_____P__OP_O_ jtwc_sh SH021967 -14.2000 158.300 15 -1 -14.2366 158.350 1002 -14.2000 158.300 TC 15 -14.2420 158.262 7 -14.2000 158.500 TC 25 1002 4 126
1966317S08161 1967 108 SP EA ANGELA 1966-11-18 03:00:00 TS -14.3387 158.535 main 523 523 P_____P__PP_P_ SH021967 -14.3500 158.478 15 -1 -14.3409 158.508 1002 -14.3500 158.478 TC 15 -14.3750 158.472 7 -14.3075 158.693 TC 25 1002 5 123
1966317S08161 1967 108 SP EA ANGELA 1966-11-18 06:00:00 TS -14.4598 158.748 main 532 520 O_____P__OP_O_ jtwc_sh SH021967 -14.5000 158.700 15 -1 -14.4395 158.690 1003 -14.5000 158.700 TC 15 -14.5088 158.718 7 -14.4000 158.900 TC 25 1003 5 118
1966317S08161 1967 108 SP EA ANGELA 1966-11-18 09:00:00 TS -14.5672 158.988 main 522 510 P_____P__PP_P_ SH021967 -14.6075 158.978 15 -1 -14.5357 158.916 1003 -14.6075 158.978 TC 15 -14.6311 158.997 7 -14.4999 159.070 TC 22 1003 5 113
1966317S08161 1967 108 SP EA ANGELA 1966-11-18 11:00:00 TS -14.6345 159.173 1004 bom main 510 510 P_____O__PO_P_ SH021967 -14.6693 159.189 15 -1 -14.6000 159.100 1004 -14.6693 159.189 TC 15 -14.7000 159.200 7 -14.5666 159.211 TC 20 1003 6 109
1966317S08161 1967 108 SP EA ANGELA 1966-11-18 12:00:00 TS -14.6657 159.276 main 514 497 O_____P__OP_O_ jtwc_sh SH021967 -14.7000 159.300 15 -1 -14.6325 159.204 1004 -14.7000 159.300 TC 15 -14.7294 159.306 7 -14.6000 159.300 TC 20 1004 7 106
1966317S08161 1967 108 SP EA ANGELA 1966-11-18 15:00:00 TS -14.7571 159.628 main 507 488 P_____P__PP_P_ SH021967 -14.7976 159.645 15 -1 -14.7316 159.559 1004 -14.7976 159.645 TC 15 -14.7991 159.640 7 -14.7001 159.670 TC 20 1004 7 103
1966317S08161 1967 108 SP MM ANGELA 1966-11-18 18:00:00 TS -14.8364 160.022 main 488 483 O_____P__OP_O_ jtwc_sh SH021967 -14.9000 160.000 15 -1 -14.8320 159.964 1004 -14.9000 160.000 TC 15 -14.8470 159.991 7 -14.8000 160.100 TC 20 1004 8 101
1966317S08161 1967 108 SP MM ANGELA 1966-11-18 21:00:00 TS -14.9040 160.434 main 483 474 ______P___P_P_ SH021967 -1 -14.9329 160.401 1004 TC -14.8811 160.355 7 -14.9001 160.510 TC 20 1004 8 100
1966317S08161 1967 108 SP MM ANGELA 1966-11-18 23:00:00 TS -14.9584 160.710 1004 bom main 485 480 ______O___O_P_ SH021967 -1 -15.0000 160.700 1004 TC -14.9000 160.600 7 -14.9667 160.771 TC 20 1004 9 102
1966317S08161 1967 108 SP MM ANGELA 1966-11-19 00:00:00 TS -15.0000 160.900 main 480 ____________O_ -1 7 -15.0000 160.900 TC 20 1004 11 103

Digital Typhoon Data and Search

About IBTrACS Database

This database is a web-friendly format of International Best Track Archive for Climate Stewardship (IBTrACS), a global best track data archive curated by NOAA dating back to 1842.

Updated: 2021-12-01